createdAt,value
2018-01-07T00:02:10.663Z,93974.91
2018-01-07T00:04:38.431Z,93969.61
2018-01-07T00:07:06.150Z,93974.63
2018-01-07T00:09:34.091Z,93960.42
2018-01-07T00:12:01.804Z,93970.48
2018-01-07T00:14:29.514Z,93973.15
2018-01-07T00:16:57.329Z,93977.36
2018-01-07T00:19:25.030Z,93974.89
2018-01-07T00:21:52.773Z,93980.17
2018-01-07T00:24:20.471Z,93972.02
2018-01-07T00:26:48.152Z,93974.48
2018-01-07T00:29:15.947Z,93980.32
2018-01-07T00:31:43.759Z,93981.67
2018-01-07T00:34:11.491Z,93980.10
2018-01-07T00:36:39.271Z,93980.58
2018-01-07T00:39:06.977Z,93990.05
2018-01-07T00:41:34.701Z,93997.88
2018-01-07T00:44:02.465Z,94001.02
2018-01-07T00:46:30.308Z,94011.30
2018-01-07T00:48:58.081Z,94014.55
2018-01-07T00:51:25.787Z,94023.10
2018-01-07T00:53:53.486Z,94017.11
2018-01-07T00:56:21.214Z,94026.86
2018-01-07T00:58:48.961Z,94027.34
2018-01-07T01:01:16.713Z,94029.17
2018-01-07T01:03:44.466Z,94029.98
2018-01-07T01:06:12.311Z,94035.08
2018-01-07T01:08:40.110Z,94032.75
2018-01-07T01:11:07.947Z,94038.44
2018-01-07T01:13:35.762Z,94037.39
2018-01-07T01:16:03.552Z,94045.13
2018-01-07T01:18:31.389Z,94055.18
2018-01-07T01:20:59.202Z,94053.81
2018-01-07T01:23:27.073Z,94060.02
2018-01-07T01:25:54.874Z,94059.62
2018-01-07T01:28:22.628Z,94062.92
2018-01-07T01:30:50.425Z,94059.50
2018-01-07T01:33:18.193Z,94069.06
2018-01-07T01:35:45.963Z,94068.36
2018-01-07T01:38:13.728Z,94064.27
2018-01-07T01:40:41.499Z,94068.91
2018-01-07T01:43:09.250Z,94066.92
2018-01-07T01:45:37.008Z,94060.78
2018-01-07T01:48:04.718Z,94057.01
2018-01-07T01:50:32.465Z,94056.83
2018-01-07T01:53:00.279Z,94054.60
2018-01-07T01:55:27.983Z,94058.50
2018-01-07T01:57:55.724Z,94060.20
2018-01-07T02:00:23.472Z,94064.70
2018-01-07T02:02:51.157Z,94072.29
2018-01-07T02:05:18.918Z,94079.72
2018-01-07T02:07:46.710Z,94083.12
2018-01-07T02:10:14.438Z,94082.44
2018-01-07T02:12:42.127Z,94088.91
2018-01-07T02:15:09.879Z,94086.70
2018-01-07T02:17:37.569Z,94091.01
2018-01-07T02:20:05.331Z,94087.84
2018-01-07T02:22:33.090Z,94086.07
2018-01-07T02:25:00.819Z,94084.67
2018-01-07T02:27:28.569Z,94086.52
2018-01-07T02:29:56.291Z,94084.12
2018-01-07T02:32:23.990Z,94075.34
2018-01-07T02:34:51.765Z,94071.20
2018-01-07T02:37:19.508Z,94073.58
2018-01-07T02:39:47.231Z,94078.37
2018-01-07T02:42:15.002Z,94081.02
2018-01-07T02:44:42.751Z,94094.09
2018-01-07T02:47:10.450Z,94094.31
2018-01-07T02:49:38.206Z,94098.48
2018-01-07T02:52:05.953Z,94103.58
2018-01-07T02:54:33.708Z,94096.33
2018-01-07T02:57:01.487Z,94101.78
2018-01-07T02:59:29.216Z,94098.67
2018-01-07T03:01:57.282Z,94105.19
2018-01-07T03:04:25.044Z,94101.61
2018-01-07T03:06:52.845Z,94108.38
2018-01-07T03:09:20.806Z,94102.66
2018-01-07T03:11:48.582Z,94107.17
2018-01-07T03:14:16.379Z,94112.52
2018-01-07T03:16:44.119Z,94107.09
2018-01-07T03:19:11.840Z,94114.19
2018-01-07T03:21:39.556Z,94117.22
2018-01-07T03:24:07.390Z,94122.58
2018-01-07T03:26:35.092Z,94118.16
2018-01-07T03:29:02.867Z,94123.40
2018-01-07T03:31:30.589Z,94125.00
2018-01-07T03:33:58.556Z,94124.13
2018-01-07T03:36:26.226Z,94123.95
2018-01-07T03:38:53.988Z,94125.88
2018-01-07T03:41:21.760Z,94124.41
2018-01-07T03:43:49.481Z,94128.84
2018-01-07T03:46:17.239Z,94127.47
2018-01-07T03:48:44.966Z,94129.59
2018-01-07T03:51:12.692Z,94132.02
2018-01-07T03:53:41.349Z,94133.08
2018-01-07T03:56:09.131Z,94140.63
2018-01-07T03:58:36.834Z,94136.88
2018-01-07T04:01:04.544Z,94143.11
2018-01-07T04:03:32.299Z,94136.70
2018-01-07T04:06:01.172Z,94139.10
2018-01-07T04:08:28.932Z,94143.82
2018-01-07T04:10:56.791Z,94141.97
2018-01-07T04:13:24.599Z,94145.43
2018-01-07T04:15:52.403Z,94146.66
2018-01-07T04:18:20.179Z,94145.95
2018-01-07T04:20:49.173Z,94138.98
2018-01-07T04:23:17.023Z,94145.73
2018-01-07T04:25:45.091Z,94145.41
2018-01-07T04:28:13.031Z,94150.34
2018-01-07T04:30:40.836Z,94159.39
2018-01-07T04:33:08.663Z,94163.42
2018-01-07T04:35:36.359Z,94161.22
2018-01-07T04:38:04.123Z,94157.39
2018-01-07T04:40:31.911Z,94160.77
2018-01-07T04:42:59.625Z,94162.42
2018-01-07T04:45:27.373Z,94157.05
2018-01-07T04:47:55.092Z,94164.14
2018-01-07T04:50:22.881Z,94160.32
2018-01-07T04:52:50.624Z,94176.98
2018-01-07T04:55:18.400Z,94171.40
2018-01-07T04:57:46.200Z,94179.45
2018-01-07T05:00:13.950Z,94188.28
2018-01-07T05:02:41.713Z,94193.23
2018-01-07T05:05:09.397Z,94187.66
2018-01-07T05:07:37.130Z,94191.81
2018-01-07T05:10:04.864Z,94196.09
2018-01-07T05:12:32.622Z,94199.95
2018-01-07T05:15:00.344Z,94192.80
2018-01-07T05:17:28.096Z,94192.27
2018-01-07T05:19:55.933Z,94199.65
2018-01-07T05:22:23.627Z,94206.53
2018-01-07T05:24:51.313Z,94209.27
2018-01-07T05:27:19.095Z,94207.34
2018-01-07T05:29:46.814Z,94217.00
2018-01-07T05:32:15.001Z,94216.53
2018-01-07T05:34:42.825Z,94222.98
2018-01-07T05:37:10.583Z,94226.70
2018-01-07T05:39:38.296Z,94224.55
2018-01-07T05:42:06.094Z,94230.01
2018-01-07T05:44:33.783Z,94230.30
2018-01-07T05:47:01.549Z,94232.23
2018-01-07T05:49:29.291Z,94237.26
2018-01-07T05:51:57.023Z,94241.41
2018-01-07T05:54:24.791Z,94246.93
2018-01-07T05:56:52.906Z,94257.59
2018-01-07T05:59:20.664Z,94263.36
2018-01-07T06:01:48.344Z,94261.69
2018-01-07T06:04:16.056Z,94269.73
2018-01-07T06:06:44.716Z,94272.30
2018-01-07T06:09:12.393Z,94270.44
2018-01-07T06:11:40.158Z,94266.49
2018-01-07T06:14:07.892Z,94267.65
2018-01-07T06:16:35.567Z,94269.76
2018-01-07T06:19:03.303Z,94269.45
2018-01-07T06:21:31.035Z,94283.01
2018-01-07T06:23:58.727Z,94280.34
2018-01-07T06:26:26.511Z,94292.34
2018-01-07T06:28:54.186Z,94299.89
2018-01-07T06:31:21.926Z,94312.58
2018-01-07T06:33:49.742Z,94312.84
2018-01-07T06:36:17.555Z,94309.27
2018-01-07T06:38:45.263Z,94320.38
2018-01-07T06:41:12.991Z,94316.27
2018-01-07T06:43:40.742Z,94313.13
2018-01-07T06:46:08.443Z,94323.59
2018-01-07T06:48:37.055Z,94330.08
2018-01-07T06:51:04.754Z,94333.00
2018-01-07T06:53:32.484Z,94333.76
2018-01-07T06:56:00.229Z,94344.38
2018-01-07T06:58:27.931Z,94347.61
2018-01-07T07:00:55.677Z,94356.83
2018-01-07T07:03:23.472Z,94353.14
2018-01-07T07:05:51.301Z,94356.86
2018-01-07T07:08:19.075Z,94359.30
2018-01-07T07:10:46.821Z,94367.80
2018-01-07T07:13:14.585Z,94373.01
2018-01-07T07:15:42.379Z,94380.21
2018-01-07T07:18:10.108Z,94372.81
2018-01-07T07:20:37.893Z,94383.06
2018-01-07T07:23:05.600Z,94387.81
2018-01-07T07:25:33.363Z,94391.64
2018-01-07T07:28:01.165Z,94395.80
2018-01-07T07:30:28.920Z,94393.91
2018-01-07T07:32:57.764Z,94396.16
2018-01-07T07:35:25.503Z,94398.89
2018-01-07T07:37:53.287Z,94393.11
2018-01-07T07:40:21.051Z,94401.23
2018-01-07T07:42:48.793Z,94403.38
2018-01-07T07:45:16.907Z,94399.27
2018-01-07T07:47:44.710Z,94402.53
2018-01-07T07:50:13.062Z,94399.16
2018-01-07T07:52:40.816Z,94404.41
2018-01-07T07:55:09.262Z,94414.34
2018-01-07T07:57:37.350Z,94413.14
2018-01-07T08:00:05.295Z,94415.61
2018-01-07T08:02:33.326Z,94413.26
2018-01-07T08:05:01.213Z,94409.84
2018-01-07T08:07:30.037Z,94410.61
2018-01-07T08:09:57.964Z,94407.92
2018-01-07T08:12:25.799Z,94400.80
2018-01-07T08:14:53.773Z,94403.12
2018-01-07T08:17:21.738Z,94410.48
2018-01-07T08:19:49.643Z,94411.38
2018-01-07T08:22:17.625Z,94414.75
2018-01-07T08:24:45.484Z,94409.44
2018-01-07T08:27:13.312Z,94409.30
2018-01-07T08:29:41.451Z,94417.70
2018-01-07T08:32:09.457Z,94421.97
2018-01-07T08:34:37.293Z,94420.53
2018-01-07T08:37:05.150Z,94429.33
2018-01-07T08:39:32.931Z,94425.48
2018-01-07T08:42:00.844Z,94425.09
2018-01-07T08:44:28.695Z,94417.92
2018-01-07T08:46:56.468Z,94421.22
2018-01-07T08:49:24.392Z,94423.56
2018-01-07T08:51:52.208Z,94426.82
2018-01-07T08:54:19.909Z,94432.42
2018-01-07T08:56:48.707Z,94435.89
2018-01-07T08:59:16.539Z,94430.48
2018-01-07T09:01:44.410Z,94438.52
2018-01-07T09:04:12.190Z,94445.60
2018-01-07T09:06:39.970Z,94445.95
2018-01-07T09:09:07.919Z,94437.95
2018-01-07T09:11:35.727Z,94441.73
2018-01-07T09:14:03.569Z,94439.59
2018-01-07T09:16:31.440Z,94439.11
2018-01-07T09:19:00.537Z,94432.33
2018-01-07T09:21:28.313Z,94435.33
2018-01-07T09:23:56.199Z,94435.88
2018-01-07T09:26:23.985Z,94443.27
2018-01-07T09:28:51.809Z,94447.38
2018-01-07T09:31:19.535Z,94447.86
2018-01-07T09:33:47.384Z,94450.81
2018-01-07T09:36:15.296Z,94457.90
2018-01-07T09:38:43.103Z,94462.80
2018-01-07T09:41:10.884Z,94461.27
2018-01-07T09:43:38.645Z,94466.45
2018-01-07T09:46:06.391Z,94473.78
2018-01-07T09:48:34.205Z,94477.52
2018-01-07T09:51:02.333Z,94478.19
2018-01-07T09:53:30.171Z,94478.45
2018-01-07T09:55:57.870Z,94471.25
2018-01-07T09:58:25.668Z,94468.20
2018-01-07T10:00:53.448Z,94466.70
2018-01-07T10:03:21.253Z,94455.88
2018-01-07T10:05:49.027Z,94451.48
2018-01-07T10:08:16.845Z,94453.58
2018-01-07T10:10:44.621Z,94452.53
2018-01-07T10:13:12.376Z,94450.39
2018-01-07T10:15:40.184Z,94447.74
2018-01-07T10:18:07.953Z,94453.44
2018-01-07T10:20:35.733Z,94449.20
2018-01-07T10:23:03.519Z,94449.23
2018-01-07T10:25:31.554Z,94447.41
2018-01-07T10:27:59.352Z,94447.48
2018-01-07T10:30:27.097Z,94448.98
2018-01-07T10:32:54.848Z,94445.25
2018-01-07T10:35:23.378Z,94441.75
2018-01-07T10:37:51.207Z,94451.77
2018-01-07T10:40:19.355Z,94454.84
2018-01-07T10:42:47.137Z,94456.82
2018-01-07T10:45:15.315Z,94449.05
2018-01-07T10:47:44.172Z,94449.59
2018-01-07T10:50:12.061Z,94449.92
2018-01-07T10:52:39.827Z,94452.18
2018-01-07T10:55:07.537Z,94439.86
2018-01-07T10:57:35.317Z,94436.96
2018-01-07T11:00:03.075Z,94443.24
2018-01-07T11:02:33.771Z,94436.75
2018-01-07T11:05:01.625Z,94437.33
2018-01-07T11:07:29.395Z,94438.94
2018-01-07T11:09:57.185Z,94450.06
2018-01-07T11:12:24.970Z,94452.77
2018-01-07T11:14:52.694Z,94464.84
2018-01-07T11:17:20.455Z,94463.56
2018-01-07T11:19:48.296Z,94462.61
2018-01-07T11:22:16.260Z,94457.36
2018-01-07T11:24:43.984Z,94458.13
2018-01-07T11:27:11.791Z,94455.39
2018-01-07T11:29:39.486Z,94461.04
2018-01-07T11:32:07.232Z,94452.52
2018-01-07T11:34:35.174Z,94445.45
2018-01-07T11:37:04.654Z,94451.56
2018-01-07T11:39:32.432Z,94448.86
2018-01-07T11:42:00.171Z,94453.83
2018-01-07T11:44:27.996Z,94457.73
2018-01-07T11:46:55.777Z,94455.58
2018-01-07T11:49:23.607Z,94457.42
2018-01-07T11:51:51.354Z,94446.56
2018-01-07T11:54:19.140Z,94447.05
2018-01-07T11:56:46.912Z,94444.84
2018-01-07T11:59:14.642Z,94439.57
2018-01-07T12:01:42.501Z,94432.52
2018-01-07T12:04:10.554Z,94448.47
2018-01-07T12:06:38.415Z,94436.31
2018-01-07T12:09:06.112Z,94440.69
2018-01-07T12:11:33.864Z,94428.87
2018-01-07T12:14:01.865Z,94439.53
2018-01-07T12:16:29.684Z,94445.72
2018-01-07T12:18:57.425Z,94439.44
2018-01-07T12:21:25.376Z,94444.41
2018-01-07T12:23:53.919Z,94446.19
2018-01-07T12:26:21.629Z,94437.75
2018-01-07T12:28:49.438Z,94437.33
2018-01-07T12:31:17.289Z,94436.98
2018-01-07T12:33:45.118Z,94434.88
2018-01-07T12:36:12.841Z,94438.03
2018-01-07T12:38:40.651Z,94429.61
2018-01-07T12:41:08.401Z,94422.16
2018-01-07T12:43:36.193Z,94416.63
2018-01-07T12:46:04.070Z,94419.28
2018-01-07T12:48:31.812Z,94416.44
2018-01-07T12:50:59.736Z,94418.58
2018-01-07T12:53:28.054Z,94413.52
2018-01-07T12:55:55.807Z,94410.66
2018-01-07T12:58:23.683Z,94415.38
2018-01-07T13:00:51.484Z,94411.30
2018-01-07T13:03:19.224Z,94410.42
2018-01-07T13:05:47.082Z,94413.37
2018-01-07T13:08:14.996Z,94411.97
2018-01-07T13:10:42.766Z,94415.98
2018-01-07T13:13:10.647Z,94418.49
2018-01-07T13:15:38.579Z,94420.31
2018-01-07T13:18:06.368Z,94420.13
2018-01-07T13:20:34.226Z,94424.56
2018-01-07T13:23:02.111Z,94425.26
2018-01-07T13:25:30.103Z,94415.75
2018-01-07T13:27:57.878Z,94419.77
2018-01-07T13:30:25.666Z,94422.49
2018-01-07T13:32:53.491Z,94427.49
2018-01-07T13:35:21.283Z,94422.24
2018-01-07T13:37:49.027Z,94423.34
2018-01-07T13:40:16.836Z,94432.00
2018-01-07T13:42:44.602Z,94442.73
2018-01-07T13:45:12.486Z,94451.00
2018-01-07T13:47:40.302Z,94450.08
2018-01-07T13:50:08.010Z,94446.20
2018-01-07T13:52:35.770Z,94449.45
2018-01-07T13:55:03.554Z,94446.37
2018-01-07T13:57:33.673Z,94444.61
2018-01-07T14:00:01.424Z,94441.70
2018-01-07T14:02:29.225Z,94441.91
2018-01-07T14:04:57.041Z,94448.15
2018-01-07T14:07:24.879Z,94457.67
2018-01-07T14:09:52.636Z,94460.63
2018-01-07T14:12:20.457Z,94473.63
2018-01-07T14:14:48.319Z,94473.50
2018-01-07T14:17:16.192Z,94482.55
2018-01-07T14:19:43.990Z,94488.98
2018-01-07T14:22:11.721Z,94484.70
2018-01-07T14:24:39.502Z,94488.16
2018-01-07T14:27:07.261Z,94491.06
2018-01-07T14:29:35.016Z,94485.56
2018-01-07T14:32:02.833Z,94493.30
2018-01-07T14:34:30.663Z,94483.58
2018-01-07T14:36:58.441Z,94488.84
2018-01-07T14:39:26.217Z,94487.23
2018-01-07T14:41:54.275Z,94481.47
2018-01-07T14:44:22.163Z,94481.27
2018-01-07T14:46:49.976Z,94488.12
2018-01-07T14:49:17.811Z,94503.23
2018-01-07T14:51:45.717Z,94510.46
2018-01-07T14:54:13.711Z,94517.56
2018-01-07T14:56:41.531Z,94512.74
2018-01-07T14:59:09.276Z,94520.31
2018-01-07T15:01:37.174Z,94526.59
2018-01-07T15:04:04.938Z,94519.14
2018-01-07T15:06:32.744Z,94527.14
2018-01-07T15:09:00.494Z,94529.30
2018-01-07T15:11:29.052Z,94523.86
2018-01-07T15:13:56.885Z,94523.06
2018-01-07T15:16:24.688Z,94523.77
2018-01-07T15:18:53.418Z,94525.23
2018-01-07T15:21:21.221Z,94529.44
2018-01-07T15:23:49.196Z,94534.84
2018-01-07T15:26:17.039Z,94540.69
2018-01-07T15:28:44.761Z,94542.73
2018-01-07T15:31:12.561Z,94549.08
2018-01-07T15:33:40.352Z,94555.62
2018-01-07T15:36:08.150Z,94553.31
2018-01-07T15:38:35.986Z,94556.86
2018-01-07T15:41:03.914Z,94547.19
2018-01-07T15:43:31.689Z,94548.75
2018-01-07T15:45:59.477Z,94553.13
2018-01-07T15:48:27.396Z,94547.08
2018-01-07T15:50:55.210Z,94549.62
2018-01-07T15:53:23.019Z,94549.47
2018-01-07T15:55:50.875Z,94556.71
2018-01-07T15:58:18.701Z,94553.31
2018-01-07T16:00:46.486Z,94566.72
2018-01-07T16:03:14.217Z,94570.99
2018-01-07T16:05:41.974Z,94580.63
2018-01-07T16:08:09.945Z,94580.02
2018-01-07T16:10:37.652Z,94571.61
2018-01-07T16:13:05.442Z,94574.24
2018-01-07T16:15:33.215Z,94575.81
2018-01-07T16:18:01.060Z,94569.90
2018-01-07T16:20:28.932Z,94573.95
2018-01-07T16:22:56.734Z,94572.06
2018-01-07T16:25:24.515Z,94571.98
2018-01-07T16:27:52.299Z,94577.20
2018-01-07T16:30:20.033Z,94568.87
2018-01-07T16:32:47.860Z,94558.57
2018-01-07T16:35:15.637Z,94563.95
2018-01-07T16:37:43.345Z,94555.46
2018-01-07T16:40:11.116Z,94559.40
2018-01-07T16:42:38.850Z,94566.87
2018-01-07T16:45:06.757Z,94574.23
2018-01-07T16:47:34.475Z,94575.26
2018-01-07T16:50:02.213Z,94581.10
2018-01-07T16:52:29.984Z,94591.58
2018-01-07T16:54:57.790Z,94607.61
2018-01-07T16:57:25.580Z,94611.84
2018-01-07T16:59:53.378Z,94618.79
2018-01-07T17:02:21.158Z,94622.54
2018-01-07T17:04:48.950Z,94617.95
2018-01-07T17:07:16.639Z,94604.17
2018-01-07T17:09:44.371Z,94600.27
2018-01-07T17:12:12.176Z,94591.08
2018-01-07T17:14:39.931Z,94582.66
2018-01-07T17:17:07.690Z,94581.37
2018-01-07T17:19:35.537Z,94583.82
2018-01-07T17:22:03.292Z,94585.93
2018-01-07T17:24:32.459Z,94591.84
2018-01-07T17:27:00.274Z,94598.04
2018-01-07T17:29:28.089Z,94598.23
2018-01-07T17:31:55.844Z,94605.20
2018-01-07T17:34:23.738Z,94612.33
2018-01-07T17:36:51.642Z,94608.28
2018-01-07T17:39:19.398Z,94614.53
2018-01-07T17:41:47.208Z,94619.89
2018-01-07T17:44:14.977Z,94608.77
2018-01-07T17:46:42.875Z,94611.73
2018-01-07T17:49:10.701Z,94606.24
2018-01-07T17:51:38.532Z,94611.80
2018-01-07T17:54:06.376Z,94620.10
2018-01-07T17:56:34.240Z,94621.45
2018-01-07T17:59:02.050Z,94612.20
2018-01-07T18:01:29.774Z,94610.73
2018-01-07T18:03:58.369Z,94612.02
2018-01-07T18:06:26.293Z,94615.26
2018-01-07T18:08:56.449Z,94609.03
2018-01-07T18:11:24.191Z,94615.49
2018-01-07T18:13:52.074Z,94608.52
2018-01-07T18:16:19.945Z,94610.92
2018-01-07T18:18:47.705Z,94614.69
2018-01-07T18:21:15.509Z,94615.23
2018-01-07T18:23:44.226Z,94619.66
2018-01-07T18:26:11.973Z,94619.75
2018-01-07T18:28:39.826Z,94616.47
2018-01-07T18:31:07.571Z,94613.65
2018-01-07T18:33:35.366Z,94620.30
2018-01-07T18:36:03.193Z,94613.20
2018-01-07T18:38:31.002Z,94615.25
2018-01-07T18:40:58.886Z,94612.59
2018-01-07T18:43:26.838Z,94615.25
2018-01-07T18:45:54.707Z,94615.38
2018-01-07T18:48:22.467Z,94619.23
2018-01-07T18:50:50.349Z,94632.47
2018-01-07T18:53:18.156Z,94637.42
2018-01-07T18:55:46.281Z,94637.70
2018-01-07T18:58:14.302Z,94644.33
2018-01-07T19:00:42.145Z,94644.78
2018-01-07T19:03:10.007Z,94648.94
2018-01-07T19:05:37.836Z,94650.55
2018-01-07T19:08:05.772Z,94651.64
2018-01-07T19:10:34.471Z,94649.91
2018-01-07T19:13:02.266Z,94648.80
2018-01-07T19:15:30.034Z,94645.55
2018-01-07T19:18:00.950Z,94643.72
2018-01-07T19:20:28.902Z,94641.61
2018-01-07T19:22:57.647Z,94644.09
2018-01-07T19:25:25.492Z,94638.48
2018-01-07T19:27:53.358Z,94644.49
2018-01-07T19:30:21.224Z,94652.98
2018-01-07T19:32:48.960Z,94654.56
2018-01-07T19:35:17.200Z,94654.25
2018-01-07T19:37:44.964Z,94655.55
2018-01-07T19:40:12.794Z,94663.05
2018-01-07T19:42:40.999Z,94665.97
2018-01-07T19:45:08.987Z,94672.63
2018-01-07T19:47:36.865Z,94668.73
2018-01-07T19:50:04.722Z,94664.50
2018-01-07T19:52:32.627Z,94668.03
2018-01-07T19:55:01.456Z,94668.30
2018-01-07T19:57:29.254Z,94671.11
2018-01-07T19:59:56.998Z,94664.38
2018-01-07T20:02:24.818Z,94679.39
2018-01-07T20:04:52.566Z,94682.77
2018-01-07T20:07:20.450Z,94677.55
2018-01-07T20:09:48.182Z,94672.52
2018-01-07T20:12:16.015Z,94683.77
2018-01-07T20:14:43.949Z,94705.19
2018-01-07T20:17:11.786Z,94705.47
2018-01-07T20:19:39.601Z,94688.52
2018-01-07T20:22:07.390Z,94685.36
2018-01-07T20:24:35.570Z,94695.86
2018-01-07T20:27:03.495Z,94696.59
2018-01-07T20:29:32.692Z,94682.77
2018-01-07T20:32:00.618Z,94698.81
2018-01-07T20:34:28.510Z,94691.88
2018-01-07T20:36:57.015Z,94689.23
2018-01-07T20:39:24.881Z,94690.54
2018-01-07T20:41:54.097Z,94702.42
2018-01-07T20:44:22.317Z,94709.41
2018-01-07T20:46:50.514Z,94700.16
2018-01-07T20:49:19.526Z,94703.53
2018-01-07T20:51:47.432Z,94695.47
2018-01-07T20:54:16.985Z,94697.27
2018-01-07T20:56:44.830Z,94699.39
2018-01-07T20:59:13.701Z,94703.19
2018-01-07T21:01:41.552Z,94699.38
2018-01-07T21:04:09.378Z,94709.38
2018-01-07T21:06:37.308Z,94711.97
2018-01-07T21:09:05.143Z,94714.20
2018-01-07T21:11:33.076Z,94709.36
2018-01-07T21:14:01.945Z,94711.59
2018-01-07T21:16:29.759Z,94715.62
2018-01-07T21:18:57.519Z,94714.22
2018-01-07T21:21:25.362Z,94712.34
2018-01-07T21:23:53.150Z,94707.37
2018-01-07T21:26:20.965Z,94707.50
2018-01-07T21:28:48.826Z,94706.80
2018-01-07T21:31:16.582Z,94708.62
2018-01-07T21:33:44.393Z,94708.64
2018-01-07T21:36:12.292Z,94718.77
2018-01-07T21:38:40.100Z,94715.09
2018-01-07T21:41:07.845Z,94714.42
2018-01-07T21:43:35.656Z,94715.07
2018-01-07T21:46:03.417Z,94718.36
2018-01-07T21:48:31.221Z,94730.01
2018-01-07T21:50:58.983Z,94722.55
2018-01-07T21:53:27.289Z,94729.06
2018-01-07T21:55:55.127Z,94731.45
2018-01-07T21:58:22.850Z,94741.96
2018-01-07T22:01:02.517Z,94734.42
2018-01-07T22:03:42.190Z,94737.04
2018-01-07T22:06:21.655Z,94733.84
2018-01-07T22:08:49.458Z,94726.98
2018-01-07T22:11:17.166Z,94729.05
2018-01-07T22:13:44.985Z,94727.98
2018-01-07T22:16:12.834Z,94721.47
2018-01-07T22:18:40.874Z,94721.84
2018-01-07T22:21:08.761Z,94719.37
2018-01-07T22:23:36.586Z,94726.89
2018-01-07T22:26:04.343Z,94722.92
2018-01-07T22:28:32.977Z,94724.48
2018-01-07T22:31:00.821Z,94718.83
2018-01-07T22:33:28.568Z,94727.81
2018-01-07T22:35:56.324Z,94735.73
2018-01-07T22:38:24.022Z,94730.52
2018-01-07T22:40:51.737Z,94729.05
2018-01-07T22:43:19.489Z,94744.05
2018-01-07T22:45:47.219Z,94754.70
2018-01-07T22:48:14.974Z,94746.52
2018-01-07T22:50:42.767Z,94737.38
2018-01-07T22:53:10.576Z,94740.09
2018-01-07T22:55:38.306Z,94741.91
2018-01-07T22:58:06.109Z,94731.73
2018-01-07T23:00:34.206Z,94730.08
2018-01-07T23:03:01.977Z,94722.52
2018-01-07T23:05:29.722Z,94710.70
2018-01-07T23:07:57.546Z,94720.52
2018-01-07T23:10:25.329Z,94721.84
2018-01-07T23:12:53.028Z,94718.91
2018-01-07T23:15:20.747Z,94718.57
2018-01-07T23:17:48.498Z,94719.23
2018-01-07T23:20:16.248Z,94728.34
2018-01-07T23:22:44.141Z,94733.38
2018-01-07T23:25:11.860Z,94737.48
2018-01-07T23:27:39.574Z,94742.81
2018-01-07T23:30:07.326Z,94736.02
2018-01-07T23:32:35.076Z,94728.86
2018-01-07T23:35:02.817Z,94718.78
2018-01-07T23:37:30.584Z,94706.88
2018-01-07T23:39:58.283Z,94714.06
2018-01-07T23:42:26.014Z,94702.51
2018-01-07T23:44:53.763Z,94710.12
2018-01-07T23:47:21.500Z,94717.11
2018-01-07T23:49:49.206Z,94728.11
2018-01-07T23:52:16.967Z,94717.69
2018-01-07T23:54:44.639Z,94716.55
2018-01-07T23:57:12.415Z,94717.87
2018-01-07T23:59:40.160Z,94719.98
